<?xml version="1.0" encoding="utf-8"?>
<gpx xmlns:xsi="http://www.w3.org/2001/XMLSchema-instance" xmlns:xsd="http://www.w3.org/2001/XMLSchema" version="1.1" creator="Shapelink.com" xmlns="http://www.topografix.com/GPX/1/1" xmlns:gpxtpx="http://www.garmin.com/xmlschemas/TrackPointExtension/v1">
  <metadata>
    <name>Övrigt 1.77 km, 2019-05-30</name>
    <desc></desc>
    <author><name>Marian Moron</name></author> 
    <time>2019-05-30T13:59:18Z</time>
  </metadata>
  <trk>
    <name>Övrigt 1.77 km, 2019-05-30</name>
    <trkseg>
      <trkpt lat="51.224416278718" lon="4.450750929993">
        <ele>0</ele>
        <time>2019-05-30T13:59:18Z</time>
      </trkpt>
      <trkpt lat="51.224735293832" lon="4.450254805332">
        <ele>0</ele>
        <time>2019-05-30T13:59:59Z</time>
      </trkpt>
      <trkpt lat="51.224888263507" lon="4.450044922556">
        <ele>0</ele>
        <time>2019-05-30T14:00:18Z</time>
      </trkpt>
      <trkpt lat="51.224927490799" lon="4.449978118813">
        <ele>0</ele>
        <time>2019-05-30T14:00:23Z</time>
      </trkpt>
      <trkpt lat="51.225335940786" lon="4.449719285741">
        <ele>0</ele>
        <time>2019-05-30T14:01:00Z</time>
      </trkpt>
      <trkpt lat="51.225759897288" lon="4.449617780932">
        <ele>0</ele>
        <time>2019-05-30T14:01:37Z</time>
      </trkpt>
      <trkpt lat="51.225791329413" lon="4.449592132318">
        <ele>0</ele>
        <time>2019-05-30T14:01:40Z</time>
      </trkpt>
      <trkpt lat="51.225903646873" lon="4.449474953356">
        <ele>0</ele>
        <time>2019-05-30T14:01:52Z</time>
      </trkpt>
      <trkpt lat="51.226180165754" lon="4.449017217797">
        <ele>0.2</ele>
        <time>2019-05-30T14:02:30Z</time>
      </trkpt>
      <trkpt lat="51.226291225929" lon="4.448879586999">
        <ele>0</ele>
        <time>2019-05-30T14:02:43Z</time>
      </trkpt>
      <trkpt lat="51.22643950174" lon="4.449070526681">
        <ele>0</ele>
        <time>2019-05-30T14:02:59Z</time>
      </trkpt>
      <trkpt lat="51.226564727326" lon="4.44927680524">
        <ele>0</ele>
        <time>2019-05-30T14:03:16Z</time>
      </trkpt>
      <trkpt lat="51.226953898943" lon="4.448968016044">
        <ele>0</ele>
        <time>2019-05-30T14:04:01Z</time>
      </trkpt>
      <trkpt lat="51.227065881127" lon="4.448918562834">
        <ele>6.6</ele>
        <time>2019-05-30T14:04:14Z</time>
      </trkpt>
      <trkpt lat="51.22735312884" lon="4.448355466792">
        <ele>0</ele>
        <time>2019-05-30T14:04:56Z</time>
      </trkpt>
      <trkpt lat="51.227687482831" lon="4.447867640212">
        <ele>0</ele>
        <time>2019-05-30T14:05:38Z</time>
      </trkpt>
      <trkpt lat="51.228005575936" lon="4.447349219697">
        <ele>0</ele>
        <time>2019-05-30T14:06:20Z</time>
      </trkpt>
      <trkpt lat="51.228202466767" lon="4.447169092666">
        <ele>0</ele>
        <time>2019-05-30T14:06:45Z</time>
      </trkpt>
      <trkpt lat="51.228302211377" lon="4.447333629363">
        <ele>0</ele>
        <time>2019-05-30T14:06:55Z</time>
      </trkpt>
      <trkpt lat="51.228615359161" lon="4.447844925263">
        <ele>0</ele>
        <time>2019-05-30T14:07:26Z</time>
      </trkpt>
      <trkpt lat="51.228925657099" lon="4.448367033814">
        <ele>0</ele>
        <time>2019-05-30T14:08:05Z</time>
      </trkpt>
      <trkpt lat="51.228884585789" lon="4.448614216045">
        <ele>0</ele>
        <time>2019-05-30T14:08:43Z</time>
      </trkpt>
      <trkpt lat="51.228625668898" lon="4.449113609647">
        <ele>6.4</ele>
        <time>2019-05-30T14:09:20Z</time>
      </trkpt>
      <trkpt lat="51.228559032793" lon="4.449160213011">
        <ele>0</ele>
        <time>2019-05-30T14:10:23Z</time>
      </trkpt>
      <trkpt lat="51.228772268329" lon="4.448749332273">
        <ele>3.2</ele>
        <time>2019-05-30T14:11:17Z</time>
      </trkpt>
      <trkpt lat="51.228777716564" lon="4.448743297305">
        <ele>3.4</ele>
        <time>2019-05-30T14:11:21Z</time>
      </trkpt>
      <trkpt lat="51.228835467855" lon="4.448650761129">
        <ele>3.4</ele>
        <time>2019-05-30T14:11:30Z</time>
      </trkpt>
      <trkpt lat="51.228977876336" lon="4.448506257173">
        <ele>1.4</ele>
        <time>2019-05-30T14:11:48Z</time>
      </trkpt>
      <trkpt lat="51.22928012765" lon="4.44903121557">
        <ele>0.4</ele>
        <time>2019-05-30T14:12:29Z</time>
      </trkpt>
      <trkpt lat="51.229377776785" lon="4.44973780974">
        <ele>0</ele>
        <time>2019-05-30T14:13:07Z</time>
      </trkpt>
      <trkpt lat="51.229509204977" lon="4.450421269866">
        <ele>0</ele>
        <time>2019-05-30T14:13:43Z</time>
      </trkpt>
      <trkpt lat="51.229655217675" lon="4.451109256218">
        <ele>0</ele>
        <time>2019-05-30T14:14:21Z</time>
      </trkpt>
      <trkpt lat="51.229732414974" lon="4.451820795709">
        <ele>0</ele>
        <time>2019-05-30T14:14:59Z</time>
      </trkpt>
      <trkpt lat="51.229883792088" lon="4.452334689998">
        <ele>0</ele>
        <time>2019-05-30T14:15:37Z</time>
      </trkpt>
      <trkpt lat="51.229977837006" lon="4.453026699662">
        <ele>0</ele>
        <time>2019-05-30T14:16:22Z</time>
      </trkpt>
      <trkpt lat="51.230104487515" lon="4.453715440385">
        <ele>0</ele>
        <time>2019-05-30T14:17:05Z</time>
      </trkpt>
      <trkpt lat="51.230235748069" lon="4.454405857488">
        <ele>0</ele>
        <time>2019-05-30T14:17:52Z</time>
      </trkpt>
      <trkpt lat="51.230232814404" lon="4.454539297336">
        <ele>0</ele>
        <time>2019-05-30T14:18:02Z</time>
      </trkpt>
      <trkpt lat="51.230220828287" lon="4.454929977695">
        <ele>0</ele>
        <time>2019-05-30T14:18:27Z</time>
      </trkpt>
      <trkpt lat="51.230214877138" lon="4.455283358599">
        <ele>0</ele>
        <time>2019-05-30T14:18:54Z</time>
      </trkpt>
      <trkpt lat="51.230423837905" lon="4.455484021285">
        <ele>0</ele>
        <time>2019-05-30T14:19:25Z</time>
      </trkpt>
      <trkpt lat="51.230492820942" lon="4.455526768975">
        <ele>0</ele>
        <time>2019-05-30T14:19:32Z</time>
      </trkpt>
      <trkpt lat="51.230877047238" lon="4.455866235925">
        <ele>0</ele>
        <time>2019-05-30T14:20:12Z</time>
      </trkpt>
      <trkpt lat="51.231192625773" lon="4.45636370169">
        <ele>0</ele>
        <time>2019-05-30T14:20:45Z</time>
      </trkpt>
      <trkpt lat="51.231274936031" lon="4.457066524005">
        <ele>0</ele>
        <time>2019-05-30T14:21:22Z</time>
      </trkpt>
      <trkpt lat="51.231146860599" lon="4.457660633077">
        <ele>0</ele>
        <time>2019-05-30T14:21:53Z</time>
      </trkpt>
      <trkpt lat="51.230685185547" lon="4.457759707135">
        <ele>0</ele>
        <time>2019-05-30T14:22:30Z</time>
      </trkpt>
      <trkpt lat="51.230344461312" lon="4.457836904434">
        <ele>0</ele>
        <time>2019-05-30T14:22:56Z</time>
      </trkpt>
      <trkpt lat="51.230180176072" lon="4.457743278611">
        <ele>0</ele>
        <time>2019-05-30T14:23:10Z</time>
      </trkpt>
      <trkpt lat="51.22980567278" lon="4.457956933242">
        <ele>0</ele>
        <time>2019-05-30T14:23:44Z</time>
      </trkpt>
      <trkpt lat="51.229754291733" lon="4.457953664301">
        <ele>0</ele>
        <time>2019-05-30T14:23:50Z</time>
      </trkpt>
      <trkpt lat="51.229670808009" lon="4.457970176644">
        <ele>0</ele>
        <time>2019-05-30T14:24:04Z</time>
      </trkpt>
      <trkpt lat="51.229670472733" lon="4.45795458631">
        <ele>0</ele>
        <time>2019-05-30T14:24:09Z</time>
      </trkpt>
    </trkseg>
  </trk>
</gpx>